createdAt,value
2022-07-28T00:00:16.035Z,40.20
2022-07-28T00:02:16.325Z,40.30
2022-07-28T00:04:16.830Z,40.41
2022-07-28T00:07:33.540Z,40.40
2022-07-28T00:09:33.676Z,40.83
2022-07-28T00:11:33.740Z,40.89
2022-07-28T00:13:33.881Z,41.05
2022-07-28T00:15:34.316Z,41.21
2022-07-28T00:17:34.088Z,41.25
2022-07-28T00:19:34.206Z,41.36
2022-07-28T00:21:34.337Z,41.34
2022-07-28T00:23:39.629Z,41.37
2022-07-28T00:25:35.589Z,41.41
2022-07-28T00:27:34.692Z,41.42
2022-07-28T00:29:42.602Z,41.49
2022-07-28T00:31:36.068Z,41.56
2022-07-28T00:33:35.090Z,41.62
2022-07-28T00:35:35.188Z,41.71
2022-07-28T00:37:35.280Z,41.72
2022-07-28T00:39:35.377Z,41.79
2022-07-28T00:41:35.528Z,41.84
2022-07-28T00:43:35.668Z,41.88
2022-07-28T00:45:35.760Z,41.91
2022-07-28T00:47:35.929Z,41.91
2022-07-28T00:49:35.994Z,41.93
2022-07-28T00:51:36.114Z,41.94
2022-07-28T00:53:36.284Z,41.96
2022-07-28T00:56:03.034Z,41.99
2022-07-28T00:57:37.549Z,42.16
2022-07-28T00:59:36.653Z,42.21
2022-07-28T01:01:36.974Z,42.26
2022-07-28T01:03:36.933Z,42.28
2022-07-28T01:05:43.906Z,42.32
2022-07-28T01:07:38.169Z,42.43
2022-07-28T01:09:37.296Z,42.50
2022-07-28T01:11:43.101Z,42.73
2022-07-28T01:13:38.512Z,42.88
2022-07-28T01:15:37.886Z,42.91
2022-07-28T01:17:37.805Z,43.01
2022-07-28T01:19:37.905Z,43.21
2022-07-28T01:21:38.021Z,43.29
2022-07-28T01:23:38.181Z,43.42
2022-07-28T01:25:38.301Z,43.50
2022-07-28T01:27:38.431Z,43.56
2022-07-28T01:29:38.542Z,43.63
2022-07-28T01:31:38.791Z,43.68
2022-07-28T01:33:38.836Z,43.75
2022-07-28T01:35:38.882Z,43.85
2022-07-28T01:37:39.041Z,43.96
2022-07-28T01:39:39.104Z,44.00
2022-07-28T01:41:39.240Z,44.08
2022-07-28T01:43:39.367Z,44.06
2022-07-28T01:45:39.485Z,44.15
2022-07-28T01:47:39.637Z,44.11
2022-07-28T01:49:39.752Z,44.02
2022-07-28T01:51:39.863Z,43.98
2022-07-28T01:53:39.960Z,43.97
2022-07-28T01:55:40.138Z,43.99
2022-07-28T01:57:40.246Z,44.01
2022-07-28T01:59:40.376Z,44.05
2022-07-28T02:01:40.532Z,44.07
2022-07-28T02:03:40.597Z,44.12
2022-07-28T02:05:40.724Z,44.18
2022-07-28T02:07:40.879Z,44.32
2022-07-28T02:09:41.004Z,44.41
2022-07-28T02:11:41.118Z,44.46
2022-07-28T02:13:41.252Z,44.52
2022-07-28T02:15:41.387Z,44.57
2022-07-28T02:17:41.505Z,44.61
2022-07-28T02:19:41.615Z,44.66
2022-07-28T02:21:41.700Z,44.74
2022-07-28T02:23:41.878Z,44.86
2022-07-28T02:25:41.940Z,44.96
2022-07-28T02:27:42.076Z,45.00
2022-07-28T02:29:50.662Z,45.09
2022-07-28T02:31:43.325Z,45.16
2022-07-28T02:33:58.870Z,45.18
2022-07-28T02:35:43.627Z,45.32
2022-07-28T02:37:42.697Z,45.29
2022-07-28T02:39:42.877Z,45.29
2022-07-28T02:41:43.944Z,45.33
2022-07-28T02:43:50.607Z,45.34
2022-07-28T02:45:44.270Z,45.41
2022-07-28T02:47:43.344Z,45.52
2022-07-28T02:49:43.470Z,45.56
2022-07-28T02:51:43.545Z,45.65
2022-07-28T02:53:43.695Z,45.68
2022-07-28T02:55:43.854Z,45.79
2022-07-28T02:57:43.915Z,45.88
2022-07-28T02:59:44.035Z,45.96
2022-07-28T03:01:44.205Z,46.11
2022-07-28T03:03:44.310Z,46.12
2022-07-28T03:05:44.429Z,46.31
2022-07-28T03:07:51.227Z,46.45
2022-07-28T03:09:45.657Z,46.60
2022-07-28T03:11:44.756Z,46.76
2022-07-28T03:13:44.858Z,46.89
2022-07-28T03:15:44.969Z,47.03
2022-07-28T03:17:45.073Z,47.13
2022-07-28T03:19:45.213Z,47.21
2022-07-28T03:21:45.382Z,47.26
2022-07-28T03:23:45.459Z,47.34
2022-07-28T03:25:45.648Z,47.41
2022-07-28T03:27:45.822Z,47.44
2022-07-28T03:29:45.991Z,47.49
2022-07-28T03:31:46.070Z,47.55
2022-07-28T03:33:46.107Z,47.63
2022-07-28T03:35:46.239Z,47.70
2022-07-28T03:37:46.364Z,47.74
2022-07-28T03:39:46.505Z,47.84
2022-07-28T03:41:46.665Z,47.88
2022-07-28T03:43:46.715Z,47.91
2022-07-28T03:45:47.186Z,48.00
2022-07-28T03:47:46.944Z,48.03
2022-07-28T03:49:47.089Z,48.03
2022-07-28T03:51:47.252Z,48.08
2022-07-28T03:53:47.351Z,48.05
2022-07-28T03:55:47.516Z,48.06
2022-07-28T03:57:47.606Z,48.06
2022-07-28T03:59:47.708Z,48.04
2022-07-28T04:01:47.892Z,48.04
2022-07-28T04:03:47.888Z,48.07
2022-07-28T04:05:48.038Z,48.04
2022-07-28T04:07:48.144Z,48.05
2022-07-28T04:09:48.225Z,48.07
2022-07-28T04:11:48.336Z,48.07
2022-07-28T04:13:48.434Z,48.13
2022-07-28T04:17:05.014Z,47.91
2022-07-28T04:19:05.036Z,48.37
2022-07-28T04:21:05.145Z,48.36
2022-07-28T04:23:05.321Z,48.43
2022-07-28T04:25:05.435Z,48.47
2022-07-28T04:27:05.537Z,48.53
2022-07-28T04:29:05.629Z,48.54
2022-07-28T04:31:05.847Z,48.53
2022-07-28T04:33:05.917Z,48.57
2022-07-28T04:35:06.015Z,48.55
2022-07-28T04:37:06.147Z,48.59
2022-07-28T04:39:06.240Z,48.61
2022-07-28T04:41:06.391Z,48.65
2022-07-28T04:43:06.494Z,48.71
2022-07-28T04:45:06.624Z,48.76
2022-07-28T04:47:06.775Z,48.80
2022-07-28T04:49:06.934Z,48.87
2022-07-28T04:51:06.994Z,48.82
2022-07-28T04:53:07.181Z,48.86
2022-07-28T04:55:07.256Z,48.87
2022-07-28T04:57:08.247Z,48.93
2022-07-28T04:59:08.583Z,48.99
2022-07-28T05:01:07.733Z,49.00
2022-07-28T05:03:07.850Z,49.02
2022-07-28T05:05:08.084Z,49.01
2022-07-28T05:07:12.535Z,49.03
2022-07-28T05:09:08.278Z,49.14
2022-07-28T05:11:08.355Z,49.11
2022-07-28T05:13:08.509Z,49.08
2022-07-28T05:15:08.682Z,49.10
2022-07-28T05:17:09.135Z,49.08
2022-07-28T05:19:08.949Z,49.04
2022-07-28T05:21:09.100Z,48.91
2022-07-28T05:23:09.216Z,48.83
2022-07-28T05:25:09.401Z,48.73
2022-07-28T05:27:09.504Z,48.56
2022-07-28T05:29:09.688Z,48.46
2022-07-28T05:31:09.782Z,48.39
2022-07-28T05:33:09.889Z,48.31
2022-07-28T05:35:10.096Z,48.25
2022-07-28T05:37:10.194Z,48.08
2022-07-28T05:39:10.356Z,47.83
2022-07-28T05:41:10.464Z,47.60
2022-07-28T05:43:10.635Z,47.37
2022-07-28T05:45:15.956Z,47.21
2022-07-28T05:47:11.889Z,47.06
2022-07-28T05:49:11.120Z,46.94
2022-07-28T05:51:11.205Z,46.79
2022-07-28T05:53:11.340Z,46.58
2022-07-28T05:55:11.450Z,46.44
2022-07-28T05:57:15.393Z,46.40
2022-07-28T05:59:11.725Z,46.42
2022-07-28T06:01:11.981Z,46.40
2022-07-28T06:03:12.005Z,46.39
2022-07-28T06:05:12.141Z,46.34
2022-07-28T06:07:12.280Z,46.14
2022-07-28T06:09:12.418Z,45.93
2022-07-28T06:11:13.040Z,45.52
2022-07-28T06:13:13.657Z,45.14
2022-07-28T06:15:12.830Z,44.78
2022-07-28T06:17:12.985Z,44.51
2022-07-28T06:19:13.076Z,44.22
2022-07-28T06:21:13.213Z,43.92
2022-07-28T06:23:13.342Z,43.77
2022-07-28T06:25:13.471Z,43.50
2022-07-28T06:27:13.588Z,43.31
2022-07-28T06:29:13.692Z,42.82
2022-07-28T06:31:13.886Z,39.22
2022-07-28T06:33:17.172Z,31.98
2022-07-28T06:35:14.062Z,25.99
2022-07-28T06:37:14.193Z,23.27
2022-07-28T06:39:14.338Z,22.39
2022-07-28T06:41:14.487Z,21.43
2022-07-28T06:43:14.760Z,20.48
2022-07-28T06:45:19.536Z,19.58
2022-07-28T06:47:15.949Z,19.22
2022-07-28T06:49:15.406Z,18.58
2022-07-28T06:51:15.116Z,18.27
2022-07-28T06:53:15.210Z,18.20
2022-07-28T06:55:15.356Z,18.21
2022-07-28T06:57:15.465Z,18.06
2022-07-28T06:59:15.960Z,17.63
2022-07-28T07:01:15.800Z,16.92
2022-07-28T07:03:15.811Z,16.52
2022-07-28T07:05:15.891Z,16.31
2022-07-28T07:07:17.266Z,16.60
2022-07-28T07:09:16.195Z,16.89
2022-07-28T07:11:16.342Z,17.16
2022-07-28T07:13:16.437Z,17.54
2022-07-28T07:15:16.623Z,18.01
2022-07-28T07:17:16.720Z,17.95
2022-07-28T07:19:16.869Z,17.99
2022-07-28T07:21:16.960Z,18.02
2022-07-28T07:23:17.062Z,18.13
2022-07-28T07:25:17.298Z,18.00
2022-07-28T07:27:17.392Z,17.58
2022-07-28T07:29:17.453Z,17.18
2022-07-28T07:31:17.627Z,17.09
2022-07-28T07:33:17.778Z,16.95
2022-07-28T07:35:17.909Z,16.51
2022-07-28T07:37:18.658Z,16.51
2022-07-28T07:39:18.225Z,16.58
2022-07-28T07:41:18.350Z,16.58
2022-07-28T07:43:18.472Z,16.60
2022-07-28T07:45:18.595Z,17.09
2022-07-28T07:47:18.778Z,17.79
2022-07-28T07:49:19.017Z,18.12
2022-07-28T07:51:19.059Z,18.23
2022-07-28T07:53:19.181Z,18.67
2022-07-28T07:55:19.341Z,18.72
2022-07-28T07:57:19.476Z,18.81
2022-07-28T07:59:19.601Z,18.92
2022-07-28T08:01:19.764Z,19.27
2022-07-28T08:03:22.484Z,19.38
2022-07-28T08:05:19.978Z,19.44
2022-07-28T08:07:22.025Z,19.29
2022-07-28T08:09:20.237Z,19.00
2022-07-28T08:11:20.410Z,18.52
2022-07-28T08:13:20.543Z,17.89
2022-07-28T08:15:20.716Z,17.47
2022-07-28T08:17:25.233Z,17.19
2022-07-28T08:19:21.973Z,16.73
2022-07-28T08:21:21.102Z,16.33
2022-07-28T08:23:26.074Z,16.49
2022-07-28T08:25:22.325Z,16.02
2022-07-28T08:27:21.409Z,15.92
2022-07-28T08:29:21.589Z,15.78
2022-07-28T08:31:21.973Z,15.84
2022-07-28T08:33:22.065Z,15.90
2022-07-28T08:35:33.014Z,16.16
2022-07-28T08:37:23.346Z,16.47
2022-07-28T08:39:22.309Z,16.55
2022-07-28T08:41:22.423Z,16.76
2022-07-28T08:43:22.598Z,16.84
2022-07-28T08:45:22.671Z,16.95
2022-07-28T08:47:22.798Z,17.04
2022-07-28T08:49:22.981Z,17.03
2022-07-28T08:51:23.182Z,17.02
2022-07-28T08:53:23.216Z,17.10
2022-07-28T08:55:23.456Z,17.20
2022-07-28T08:57:23.506Z,17.12
2022-07-28T08:59:23.667Z,17.43
2022-07-28T09:01:23.769Z,17.49
2022-07-28T09:03:23.955Z,17.25
2022-07-28T09:05:24.037Z,17.21
2022-07-28T09:07:24.158Z,17.31
2022-07-28T09:09:24.290Z,17.37
2022-07-28T09:11:24.389Z,17.46
2022-07-28T09:13:24.507Z,17.50
2022-07-28T09:15:24.608Z,17.57
2022-07-28T09:17:24.746Z,17.52
2022-07-28T09:19:24.930Z,17.53
2022-07-28T09:21:26.053Z,17.49
2022-07-28T09:23:42.215Z,17.42
2022-07-28T09:25:26.352Z,17.48
2022-07-28T09:27:25.436Z,17.47
2022-07-28T09:29:25.628Z,17.41
2022-07-28T09:31:25.732Z,17.33
2022-07-28T09:33:42.148Z,17.16
2022-07-28T09:35:27.027Z,17.07
2022-07-28T09:37:27.652Z,17.07
2022-07-28T09:39:26.183Z,16.93
2022-07-28T09:41:26.376Z,16.76
2022-07-28T09:43:26.446Z,16.75
2022-07-28T09:45:26.597Z,16.62
2022-07-28T09:47:26.810Z,16.62
2022-07-28T09:49:28.915Z,16.54
2022-07-28T09:51:26.969Z,16.34
2022-07-28T09:53:28.455Z,15.88
2022-07-28T09:55:27.416Z,15.89
2022-07-28T09:57:27.677Z,15.97
2022-07-28T09:59:27.685Z,15.94
2022-07-28T10:01:28.601Z,15.71
2022-07-28T10:03:28.859Z,15.65
2022-07-28T10:05:27.964Z,15.54
2022-07-28T10:07:28.163Z,15.56
2022-07-28T10:09:28.158Z,15.50
2022-07-28T10:11:28.343Z,15.49
2022-07-28T10:13:28.669Z,15.47
2022-07-28T10:15:31.121Z,15.48
2022-07-28T10:17:28.766Z,15.49
2022-07-28T10:19:28.885Z,15.36
2022-07-28T10:21:29.114Z,15.29
2022-07-28T10:23:29.142Z,15.43
2022-07-28T10:25:29.270Z,15.48
2022-07-28T10:27:29.403Z,15.67
2022-07-28T10:29:29.544Z,15.93
2022-07-28T10:31:29.702Z,15.89
2022-07-28T10:33:29.795Z,16.07
2022-07-28T10:35:29.924Z,16.19
2022-07-28T10:37:30.129Z,16.00
2022-07-28T10:39:30.183Z,15.93
2022-07-28T10:41:30.310Z,15.76
2022-07-28T10:43:30.520Z,15.48
2022-07-28T10:45:55.117Z,15.49
2022-07-28T10:47:35.794Z,15.66
2022-07-28T10:49:32.300Z,15.48
2022-07-28T10:51:31.001Z,15.40
2022-07-28T10:53:31.127Z,15.24
2022-07-28T10:55:32.273Z,15.35
2022-07-28T10:57:31.435Z,15.24
2022-07-28T10:59:31.532Z,15.23
2022-07-28T11:01:47.568Z,15.59
2022-07-28T11:03:32.891Z,15.99
2022-07-28T11:05:32.076Z,15.62
2022-07-28T11:07:32.082Z,15.34
2022-07-28T11:09:32.173Z,15.44
2022-07-28T11:11:32.341Z,15.23
2022-07-28T11:13:32.989Z,15.25
2022-07-28T11:15:32.771Z,14.98
2022-07-28T11:17:33.470Z,14.93
2022-07-28T11:19:40.651Z,14.90
2022-07-28T11:21:41.174Z,15.64
2022-07-28T11:23:34.223Z,16.47
2022-07-28T11:25:33.321Z,16.47
2022-07-28T11:27:33.536Z,16.33
2022-07-28T11:29:33.586Z,16.32
2022-07-28T11:31:33.774Z,16.05
2022-07-28T11:33:33.834Z,16.09
2022-07-28T11:35:33.950Z,16.95
2022-07-28T11:37:34.095Z,17.58
2022-07-28T11:39:42.808Z,18.12
2022-07-28T11:41:35.352Z,18.19
2022-07-28T11:43:36.082Z,17.62
2022-07-28T11:45:38.443Z,17.59
2022-07-28T11:47:34.870Z,17.50
2022-07-28T11:49:34.940Z,17.65
2022-07-28T11:51:38.834Z,17.62
2022-07-28T11:53:36.188Z,17.49
2022-07-28T11:55:56.016Z,17.38
2022-07-28T11:57:36.432Z,17.86
2022-07-28T11:59:36.493Z,18.45
2022-07-28T12:01:37.040Z,18.82
2022-07-28T12:03:49.276Z,19.27
2022-07-28T12:05:41.642Z,19.57
2022-07-28T12:07:36.103Z,19.82
2022-07-28T12:09:42.246Z,20.12
2022-07-28T12:11:37.861Z,20.29
2022-07-28T12:13:37.340Z,20.41
2022-07-28T12:15:36.512Z,20.50
2022-07-28T12:17:36.635Z,20.51
2022-07-28T12:19:36.748Z,20.55
2022-07-28T12:21:37.022Z,20.46
2022-07-28T12:23:44.273Z,20.38
2022-07-28T12:25:38.032Z,20.22
2022-07-28T12:27:37.641Z,20.14
2022-07-28T12:29:37.342Z,19.81
2022-07-28T12:31:37.502Z,19.36
2022-07-28T12:33:37.553Z,19.08
2022-07-28T12:35:37.695Z,19.55
2022-07-28T12:37:37.884Z,19.78
2022-07-28T12:39:38.017Z,19.23
2022-07-28T12:41:38.108Z,19.66
2022-07-28T12:43:38.305Z,20.05
2022-07-28T12:45:38.386Z,20.13
2022-07-28T12:47:38.458Z,19.78
2022-07-28T12:49:38.573Z,19.52
2022-07-28T12:51:38.836Z,19.52
2022-07-28T12:53:38.865Z,19.80
2022-07-28T12:55:39.235Z,19.50
2022-07-28T12:57:42.126Z,19.33
2022-07-28T12:59:40.207Z,19.18
2022-07-28T13:01:39.457Z,19.10
2022-07-28T13:03:39.534Z,19.38
2022-07-28T13:05:39.610Z,19.65
2022-07-28T13:07:39.660Z,19.70
2022-07-28T13:09:39.761Z,19.37
2022-07-28T13:11:47.166Z,18.91
2022-07-28T13:13:41.033Z,18.65
2022-07-28T13:15:40.186Z,18.72
2022-07-28T13:17:40.234Z,18.72
2022-07-28T13:19:40.326Z,18.75
2022-07-28T13:21:40.554Z,18.72
2022-07-28T13:23:41.555Z,19.07
2022-07-28T13:25:40.739Z,19.55
2022-07-28T13:27:40.777Z,19.72
2022-07-28T13:29:40.947Z,19.92
2022-07-28T13:31:41.088Z,19.74
2022-07-28T13:33:41.165Z,19.85
2022-07-28T13:35:41.348Z,20.05
2022-07-28T13:37:41.424Z,20.27
2022-07-28T13:39:41.577Z,20.42
2022-07-28T13:41:57.131Z,20.48
2022-07-28T13:43:42.891Z,20.40
2022-07-28T13:45:42.998Z,20.48
2022-07-28T13:47:42.096Z,20.55
2022-07-28T13:49:42.253Z,20.60
2022-07-28T13:51:42.337Z,20.72
2022-07-28T13:53:42.536Z,20.90
2022-07-28T13:55:42.672Z,21.01
2022-07-28T13:57:43.144Z,21.22
2022-07-28T13:59:43.899Z,21.36
2022-07-28T14:01:43.011Z,21.45
2022-07-28T14:03:56.032Z,21.52
2022-07-28T14:05:44.217Z,21.61
2022-07-28T14:07:48.504Z,21.64
2022-07-28T14:09:44.451Z,21.74
2022-07-28T14:11:50.136Z,21.78
2022-07-28T14:13:44.656Z,21.81
2022-07-28T14:15:43.763Z,21.71
2022-07-28T14:17:46.040Z,21.48
2022-07-28T14:19:44.049Z,21.44
2022-07-28T14:21:44.212Z,21.62
2022-07-28T14:23:44.371Z,21.80
2022-07-28T14:25:49.602Z,21.94
2022-07-28T14:27:45.579Z,22.05
2022-07-28T14:29:44.859Z,22.22
2022-07-28T14:31:44.878Z,22.36
2022-07-28T14:33:48.371Z,22.53
2022-07-28T14:35:46.149Z,22.67
2022-07-28T14:39:46.387Z,22.82
2022-07-28T14:41:45.425Z,22.93
2022-07-28T14:43:45.571Z,23.05
2022-07-28T14:45:51.446Z,23.13
2022-07-28T14:47:46.956Z,23.23
2022-07-28T14:49:57.686Z,23.32
2022-07-28T14:51:47.139Z,23.41
2022-07-28T14:53:49.920Z,23.46
2022-07-28T14:55:47.324Z,23.54
2022-07-28T14:57:52.441Z,23.62
2022-07-28T14:59:47.955Z,23.72
2022-07-28T15:01:46.847Z,23.80
2022-07-28T15:03:46.899Z,23.90
2022-07-28T15:05:47.025Z,23.96
2022-07-28T15:07:47.388Z,24.02
2022-07-28T15:09:50.430Z,24.11
2022-07-28T15:11:47.615Z,24.20
2022-07-28T15:13:47.562Z,24.27
2022-07-28T15:15:47.722Z,24.37
2022-07-28T15:17:47.748Z,24.45
2022-07-28T15:19:47.909Z,24.55
2022-07-28T15:21:48.254Z,24.66
2022-07-28T15:23:48.235Z,24.84
2022-07-28T15:25:48.331Z,24.90
2022-07-28T15:27:48.426Z,24.98
2022-07-28T15:29:50.406Z,25.02
2022-07-28T15:31:48.758Z,25.08
2022-07-28T15:33:51.680Z,25.14
2022-07-28T15:35:57.980Z,25.20
2022-07-28T15:37:50.176Z,25.28
2022-07-28T15:39:49.274Z,25.32
2022-07-28T15:41:49.316Z,25.39
2022-07-28T15:43:49.776Z,25.45
2022-07-28T15:45:49.660Z,25.52
2022-07-28T15:47:49.737Z,25.60
2022-07-28T15:49:49.796Z,25.68
2022-07-28T15:51:50.090Z,25.74
2022-07-28T15:53:50.344Z,25.83
2022-07-28T15:55:51.436Z,25.85
2022-07-28T15:57:50.403Z,25.88
2022-07-28T15:59:50.959Z,25.89
2022-07-28T16:01:50.675Z,25.89
2022-07-28T16:03:50.760Z,25.92
2022-07-28T16:05:51.177Z,25.97
2022-07-28T16:07:51.077Z,25.98
2022-07-28T16:09:51.198Z,26.05
2022-07-28T16:11:51.317Z,26.06
2022-07-28T16:13:51.589Z,26.10
2022-07-28T16:15:51.691Z,26.14
2022-07-28T16:17:51.762Z,26.19
2022-07-28T16:19:51.985Z,26.28
2022-07-28T16:21:52.042Z,26.35
2022-07-28T16:23:52.180Z,26.41
2022-07-28T16:25:52.633Z,26.48
2022-07-28T16:27:52.493Z,26.54
2022-07-28T16:29:52.618Z,26.63
2022-07-28T16:31:52.831Z,26.72
2022-07-28T16:33:52.904Z,26.82
2022-07-28T16:35:53.873Z,26.88
2022-07-28T16:37:53.154Z,26.97
2022-07-28T16:39:53.277Z,27.04
2022-07-28T16:41:53.446Z,27.10
2022-07-28T16:43:53.532Z,27.20
2022-07-28T16:45:53.669Z,27.31
2022-07-28T16:47:53.879Z,27.41
2022-07-28T16:49:53.921Z,27.49
2022-07-28T16:51:54.061Z,27.53
2022-07-28T16:53:54.220Z,27.61
2022-07-28T16:55:54.379Z,27.68
2022-07-28T16:57:54.505Z,27.77
2022-07-28T16:59:54.572Z,27.84
2022-07-28T17:01:55.148Z,27.92
2022-07-28T17:03:54.953Z,27.96
2022-07-28T17:05:55.020Z,28.07
2022-07-28T17:07:55.120Z,28.20
2022-07-28T17:09:55.330Z,28.27
2022-07-28T17:11:55.933Z,28.36
2022-07-28T17:13:55.600Z,28.43
2022-07-28T17:15:55.779Z,28.48
2022-07-28T17:17:55.878Z,28.50
2022-07-28T17:19:56.033Z,28.55
2022-07-28T17:21:56.126Z,28.60
2022-07-28T17:23:56.313Z,28.66
2022-07-28T17:26:45.678Z,28.73
2022-07-28T17:27:57.590Z,28.81
2022-07-28T17:29:56.745Z,28.87
2022-07-28T17:31:56.961Z,28.93
2022-07-28T17:33:57.028Z,29.04
2022-07-28T17:35:57.226Z,29.10
2022-07-28T17:37:57.302Z,29.17
2022-07-28T17:39:57.528Z,29.23
2022-07-28T17:41:57.629Z,29.33
2022-07-28T17:43:57.823Z,29.42
2022-07-28T17:45:57.840Z,29.50
2022-07-28T17:47:57.974Z,29.60
2022-07-28T17:49:58.181Z,29.71
2022-07-28T17:51:58.257Z,29.83
2022-07-28T17:53:58.331Z,29.93
2022-07-28T17:56:00.268Z,30.02
2022-07-28T17:57:58.579Z,30.16
2022-07-28T17:59:58.694Z,30.25
2022-07-28T18:01:59.069Z,30.36
2022-07-28T18:04:00.918Z,30.51
2022-07-28T18:05:59.140Z,30.61
2022-07-28T18:07:59.454Z,30.68
2022-07-28T18:09:59.275Z,30.78
2022-07-28T18:11:59.575Z,30.91
2022-07-28T18:14:03.808Z,30.98
2022-07-28T18:16:00.668Z,31.10
2022-07-28T18:17:59.805Z,31.22
2022-07-28T18:19:59.878Z,31.34
2022-07-28T18:21:59.982Z,31.43
2022-07-28T18:24:00.118Z,31.47
2022-07-28T18:26:00.221Z,31.52
2022-07-28T18:28:00.326Z,31.61
2022-07-28T18:30:00.422Z,31.79
2022-07-28T18:32:00.538Z,31.92
2022-07-28T18:34:00.654Z,32.08
2022-07-28T18:36:01.320Z,32.18
2022-07-28T18:38:00.918Z,32.27
2022-07-28T18:40:01.046Z,32.38
2022-07-28T18:42:01.083Z,32.42
2022-07-28T18:44:01.255Z,32.52
2022-07-28T18:46:01.385Z,32.57
2022-07-28T18:48:01.489Z,32.69
2022-07-28T18:50:01.549Z,32.80
2022-07-28T18:52:01.675Z,32.84
2022-07-28T18:54:01.809Z,32.85
2022-07-28T18:56:02.017Z,32.96
2022-07-28T18:58:02.069Z,32.99
2022-07-28T19:00:02.176Z,33.03
2022-07-28T19:02:02.717Z,33.14
2022-07-28T19:04:02.428Z,33.18
2022-07-28T19:06:03.496Z,33.25
2022-07-28T19:08:02.714Z,33.29
2022-07-28T19:10:02.840Z,33.37
2022-07-28T19:12:02.988Z,33.42
2022-07-28T19:14:03.098Z,33.43
2022-07-28T19:16:03.295Z,33.50
2022-07-28T19:18:10.166Z,33.56
2022-07-28T19:20:04.445Z,33.61
2022-07-28T19:22:03.554Z,33.64
2022-07-28T19:24:03.704Z,33.76
2022-07-28T19:26:03.828Z,33.78
2022-07-28T19:28:03.905Z,33.84
2022-07-28T19:30:04.029Z,33.87
2022-07-28T19:32:04.183Z,33.93
2022-07-28T19:34:05.262Z,33.98
2022-07-28T19:36:04.440Z,34.01
2022-07-28T19:38:04.572Z,34.04
2022-07-28T19:40:04.688Z,34.11
2022-07-28T19:42:04.980Z,34.20
2022-07-28T19:44:04.968Z,34.27
2022-07-28T19:46:05.139Z,34.30
2022-07-28T19:48:05.235Z,34.32
2022-07-28T19:50:05.319Z,34.40
2022-07-28T19:52:05.405Z,34.42
2022-07-28T19:54:05.554Z,34.50
2022-07-28T19:56:05.686Z,34.53
2022-07-28T19:58:05.768Z,34.58
2022-07-28T20:00:05.893Z,34.65
2022-07-28T20:02:06.041Z,34.69
2022-07-28T20:04:06.174Z,34.70
2022-07-28T20:06:06.264Z,34.76
2022-07-28T20:08:06.525Z,34.74
2022-07-28T20:10:06.672Z,34.78
2022-07-28T20:12:07.703Z,34.80
2022-07-28T20:14:06.755Z,34.83
2022-07-28T20:16:06.784Z,34.81
2022-07-28T20:18:06.931Z,34.80
2022-07-28T20:20:07.088Z,34.87
2022-07-28T20:22:07.195Z,34.87
2022-07-28T20:24:07.284Z,34.92
2022-07-28T20:26:07.414Z,34.96
2022-07-28T20:28:07.535Z,35.07
2022-07-28T20:30:07.691Z,35.18
2022-07-28T20:32:07.823Z,35.38
2022-07-28T20:34:07.976Z,35.37
2022-07-28T20:36:08.081Z,35.43
2022-07-28T20:38:08.178Z,35.53
2022-07-28T20:40:08.320Z,35.62
2022-07-28T20:42:08.436Z,35.75
2022-07-28T20:44:29.328Z,35.87
2022-07-28T20:46:09.774Z,35.95
2022-07-28T20:48:08.813Z,36.05
2022-07-28T20:50:09.900Z,36.06
2022-07-28T20:52:09.063Z,36.08
2022-07-28T20:54:09.169Z,36.08
2022-07-28T20:56:09.312Z,36.07
2022-07-28T20:58:09.466Z,36.03
2022-07-28T21:00:09.602Z,36.02
2022-07-28T21:02:09.845Z,35.96
2022-07-28T21:04:11.364Z,35.98
2022-07-28T21:06:09.908Z,35.96
2022-07-28T21:08:16.102Z,35.95
2022-07-28T21:10:11.154Z,35.96
2022-07-28T21:12:10.266Z,35.98
2022-07-28T21:14:10.380Z,36.05
2022-07-28T21:16:10.633Z,36.03
2022-07-28T21:18:10.695Z,36.02
2022-07-28T21:20:10.788Z,36.01
2022-07-28T21:22:10.906Z,36.04
2022-07-28T21:24:11.054Z,36.05
2022-07-28T21:26:11.153Z,36.09
2022-07-28T21:28:11.277Z,36.05
2022-07-28T21:30:11.392Z,36.06
2022-07-28T21:32:11.535Z,36.04
2022-07-28T21:34:11.881Z,36.04
2022-07-28T21:36:11.787Z,36.02
2022-07-28T21:38:11.910Z,36.03
2022-07-28T21:40:12.090Z,36.05
2022-07-28T21:42:12.175Z,36.04
2022-07-28T21:44:12.317Z,36.04
2022-07-28T21:46:12.532Z,36.02
2022-07-28T21:48:12.584Z,36.02
2022-07-28T21:50:12.734Z,36.01
2022-07-28T21:52:12.892Z,35.98
2022-07-28T21:54:13.370Z,35.94
2022-07-28T21:56:13.120Z,35.95
2022-07-28T21:58:13.236Z,36.03
2022-07-28T22:00:13.349Z,36.09
2022-07-28T22:02:13.503Z,36.27
2022-07-28T22:04:13.972Z,36.33
2022-07-28T22:06:13.735Z,36.48
2022-07-28T22:08:15.831Z,36.53
2022-07-28T22:10:14.154Z,36.63
2022-07-28T22:12:14.062Z,36.73
2022-07-28T22:14:14.557Z,36.78
2022-07-28T22:16:14.325Z,36.89
2022-07-28T22:18:16.834Z,37.00
2022-07-28T22:20:14.526Z,37.10
2022-07-28T22:22:14.678Z,37.18
2022-07-28T22:24:15.040Z,37.25
2022-07-28T22:26:14.948Z,37.33
2022-07-28T22:28:15.053Z,37.40
2022-07-28T22:30:15.222Z,37.50
2022-07-28T22:32:15.303Z,37.55
2022-07-28T22:34:15.714Z,37.66
2022-07-28T22:36:15.509Z,37.78
2022-07-28T22:38:15.685Z,37.94
2022-07-28T22:40:15.790Z,38.10
2022-07-28T22:42:15.911Z,38.21
2022-07-28T22:44:16.322Z,38.35
2022-07-28T22:46:16.196Z,38.41
2022-07-28T22:48:16.288Z,38.45
2022-07-28T22:50:16.454Z,38.54
2022-07-28T22:52:16.531Z,38.62
2022-07-28T22:54:17.087Z,38.65
2022-07-28T22:56:16.839Z,38.66
2022-07-28T22:58:16.927Z,38.71
2022-07-28T23:00:17.089Z,38.74
2022-07-28T23:02:17.162Z,38.76
2022-07-28T23:04:17.698Z,38.74
2022-07-28T23:06:17.740Z,38.74
2022-07-28T23:08:17.509Z,38.74
2022-07-28T23:10:17.645Z,38.80
2022-07-28T23:12:17.858Z,38.84
2022-07-28T23:14:18.138Z,38.86
2022-07-28T23:16:18.100Z,38.90
2022-07-28T23:18:18.165Z,38.90
2022-07-28T23:20:18.333Z,38.91
2022-07-28T23:22:18.450Z,38.91
2022-07-28T23:24:18.848Z,38.91
2022-07-28T23:26:18.696Z,38.94
2022-07-28T23:28:18.809Z,38.95
2022-07-28T23:30:18.941Z,38.99
2022-07-28T23:32:19.129Z,38.94
2022-07-28T23:34:19.449Z,38.93
2022-07-28T23:36:26.542Z,38.93
2022-07-28T23:38:20.449Z,38.92
2022-07-28T23:40:19.591Z,38.93
2022-07-28T23:42:19.737Z,38.96
2022-07-28T23:44:19.846Z,38.93
2022-07-28T23:46:20.083Z,38.90
2022-07-28T23:48:20.159Z,38.88
2022-07-28T23:50:20.395Z,38.86
2022-07-28T23:52:20.397Z,38.84
2022-07-28T23:54:20.580Z,38.81
2022-07-28T23:56:20.678Z,38.82
2022-07-28T23:58:20.774Z,38.79
